Time;durP1;ratioP1;P1;durP2;ratioP2;P2;SDS_P1;SDS_P2;PMS_P1;PMS_P2;Temp;Humidity;BMP_temperature;BMP_pressure;BME280_temperature;BME280_humidity;BME280_pressure;Samples;Min_cycle;Max_cycle;Signal;HPM_P1;HPM_P2
2024/04/09 00:00:16;;;;;;;3.87;2.17;;;;;;;18.08;60.90;97776.69;5492419;26;42621;-76
2024/04/09 00:02:43;;;;;;;6.07;2.33;;;;;;;17.91;61.24;97746.41;5492005;26;43376;-79
2024/04/09 00:05:13;;;;;;;3.70;2.00;;;;;;;17.91;61.43;97750.94;5490643;26;40234;-77
2024/04/09 00:07:39;;;;;;;5.83;2.47;;;;;;;17.95;61.36;97757.59;5492085;26;42932;-80
2024/04/09 00:10:09;;;;;;;4.80;2.37;;;;;;;17.88;61.68;97744.06;5492117;26;44082;-78
2024/04/09 00:12:36;;;;;;;9.10;2.40;;;;;;;17.79;61.44;97730.84;5490095;26;43380;-80
2024/04/09 00:15:07;;;;;;;7.90;2.53;;;;;;;17.83;61.22;97732.16;5490389;26;40126;-78
2024/04/09 00:17:44;;;;;;;5.40;2.60;;;;;;;17.83;61.16;97743.72;5490102;26;41791;-77
2024/04/09 00:20:18;;;;;;;6.27;2.10;;;;;;;17.83;60.56;97737.53;5493610;26;43860;-77
2024/04/09 00:22:45;;;;;;;6.23;2.30;;;;;;;17.66;61.37;97719.81;5493508;26;41978;-78
2024/04/09 00:25:18;;;;;;;3.90;2.33;;;;;;;17.71;61.24;97738.88;5495378;26;39820;-78
2024/04/09 00:27:45;;;;;;;4.03;2.43;;;;;;;17.56;61.21;97731.47;5493309;26;41821;-76
2024/04/09 00:30:17;;;;;;;6.33;2.30;;;;;;;17.58;61.77;97750.88;5494966;26;44063;-78
2024/04/09 00:32:51;;;;;;;3.83;2.63;;;;;;;17.56;61.75;97758.25;5493225;26;43070;-78
2024/04/09 00:35:21;;;;;;;10.70;3.33;;;;;;;17.52;63.33;97748.91;5493338;26;40061;-76
2024/04/09 00:37:51;;;;;;;8.70;3.07;;;;;;;17.47;63.81;97737.84;5462527;26;40393;-76
2024/04/09 00:40:21;;;;;;;5.90;2.50;;;;;;;17.40;64.19;97736.00;5492997;26;41209;-77
2024/04/09 00:42:49;;;;;;;7.93;2.90;;;;;;;17.47;64.78;97751.22;5494619;26;43373;-77
2024/04/09 00:45:22;;;;;;;6.33;2.57;;;;;;;17.50;64.92;97742.88;5494636;26;40070;-78
2024/04/09 00:47:53;;;;;;;5.40;2.40;;;;;;;17.63;64.52;97757.59;5494908;26;41659;-76
2024/04/09 00:50:24;;;;;;;8.33;3.00;;;;;;;17.45;65.35;97725.63;5496859;26;42983;-76
2024/04/09 00:52:54;;;;;;;6.53;2.50;;;;;;;17.67;64.72;97769.69;5498269;26;42322;-77
2024/04/09 00:55:27;;;;;;;6.40;3.20;;;;;;;17.70;64.00;97772.84;5494671;26;40226;-76
2024/04/09 00:57:56;;;;;;;5.33;2.60;;;;;;;17.63;63.66;97749.56;5495710;26;41527;-79
2024/04/09 01:00:25;;;;;;;10.03;2.17;;;;;;;17.68;63.20;97749.94;5495202;26;42560;-77
2024/04/09 01:02:54;;;;;;;7.00;2.60;;;;;;;17.84;62.59;97772.19;5495145;26;42089;-76
2024/04/09 01:05:23;;;;;;;4.80;1.93;;;;;;;17.81;62.15;97755.59;5493250;26;41053;-76
2024/04/09 01:07:50;;;;;;;4.07;2.30;;;;;;;17.87;61.75;97766.50;5492598;26;40258;-76
2024/04/09 01:10:19;;;;;;;6.63;2.73;;;;;;;17.85;61.56;97781.91;5493293;26;43982;-77
2024/04/09 01:12:45;;;;;;;9.70;3.37;;;;;;;17.90;62.63;97797.47;5493099;26;42181;-77
2024/04/09 01:15:14;;;;;;;12.00;3.07;;;;;;;17.93;63.88;97813.19;5493349;26;41270;-78
2024/04/09 01:17:41;;;;;;;7.60;2.87;;;;;;;17.84;63.97;97792.78;5490513;26;40474;-77
2024/04/09 01:20:13;;;;;;;8.83;2.43;;;;;;;17.83;64.27;97775.03;5490566;26;42582;-76
2024/04/09 01:22:43;;;;;;;8.07;2.53;;;;;;;17.94;63.93;97794.28;5494325;26;42068;-79
2024/04/09 01:25:12;;;;;;;8.83;2.40;;;;;;;17.89;63.29;97769.84;5492794;26;41193;-79
2024/04/09 01:27:40;;;;;;;5.03;2.37;;;;;;;17.89;62.81;97769.84;5492678;26;42907;-78
2024/04/09 01:30:12;;;;;;;9.40;2.60;;;;;;;17.91;63.23;97767.84;5494286;26;44067;-79
2024/04/09 01:32:40;;;;;;;8.17;2.87;;;;;;;18.00;63.94;97774.03;5492003;26;42721;-79
2024/04/09 01:35:11;;;;;;;8.27;2.97;;;;;;;18.01;63.16;97778.38;5492340;26;38878;-78
2024/04/09 01:37:38;;;;;;;9.23;2.77;;;;;;;17.93;62.43;97771.16;5494295;26;42593;-78
2024/04/09 01:40:10;;;;;;;6.03;2.00;;;;;;;18.03;62.61;97773.69;5494021;26;42914;-78
2024/04/09 01:42:37;;;;;;;8.60;2.60;;;;;;;17.85;62.39;97741.72;5494191;26;42263;-79
2024/04/09 01:45:07;;;;;;;11.80;2.60;;;;;;;17.98;62.96;97754.59;5492436;26;38716;-78
2024/04/09 01:47:33;;;;;;;8.93;2.73;;;;;;;17.95;62.88;97765.66;5492366;26;41101;-77
2024/04/09 01:50:03;;;;;;;11.73;2.87;;;;;;;17.90;62.76;97757.28;5493950;26;44129;-77
2024/04/09 01:52:31;;;;;;;5.93;2.60;;;;;;;18.02;63.06;97766.66;5494139;26;44105;-79
2024/04/09 01:55:00;;;;;;;6.57;2.67;;;;;;;17.89;64.57;97743.06;5492684;26;40990;-79
2024/04/09 01:57:31;;;;;;;9.57;2.63;;;;;;;17.97;64.72;97760.13;5461695;26;41936;-79
2024/04/09 02:00:05;;;;;;;10.40;3.47;;;;;;;17.79;64.33;97741.56;5493895;26;42075;-78
2024/04/09 02:02:34;;;;;;;8.47;3.10;;;;;;;17.83;63.89;97754.44;5493226;26;44004;-77
2024/04/09 02:05:04;;;;;;;11.47;2.50;;;;;;;17.97;63.29;97760.97;5491867;26;40007;-77
2024/04/09 02:07:31;;;;;;;7.10;2.77;;;;;;;17.96;62.95;97759.28;5494212;26;41714;-79
2024/04/09 02:10:00;;;;;;;5.03;2.33;;;;;;;17.81;63.18;97744.91;5492229;26;42882;-77
2024/04/09 02:12:26;;;;;;;9.17;2.53;;;;;;;17.90;63.37;97760.81;5492124;26;43071;-79
2024/04/09 02:14:58;;;;;;;3.70;1.93;;;;;;;17.96;63.03;97764.66;5493802;26;40112;-78
2024/04/09 02:17:25;;;;;;;4.73;2.60;;;;;;;17.94;63.02;97766.66;5492181;26;41628;-78
2024/04/09 02:19:54;;;;;;;5.40;2.40;;;;;;;17.87;62.92;97757.63;5492036;26;43824;-76
2024/04/09 02:22:21;;;;;;;4.60;2.90;;;;;;;17.76;62.81;97733.88;5492335;26;43158;-77
2024/04/09 02:24:50;;;;;;;8.00;2.17;;;;;;;17.67;63.17;97719.66;5492114;26;40080;-78
2024/04/09 02:27:17;;;;;;;7.17;2.60;;;;;;;17.75;63.21;97737.53;5492032;26;40520;-79
2024/04/09 02:29:46;;;;;;;7.10;2.53;;;;;;;17.79;63.10;97744.25;5493455;26;43755;-79
2024/04/09 02:32:15;;;;;;;5.63;2.30;;;;;;;17.77;62.93;97736.38;5493860;26;42950;-78
2024/04/09 02:34:44;;;;;;;7.37;2.17;;;;;;;17.73;62.78;97727.00;5493657;26;40131;-77
2024/04/09 02:37:11;;;;;;;6.17;2.67;;;;;;;17.72;63.12;97733.34;5461289;26;43143;-79
2024/04/09 02:39:42;;;;;;;7.70;2.30;;;;;;;17.50;62.76;97708.06;5492176;26;43957;-77
2024/04/09 02:42:13;;;;;;;5.07;2.57;;;;;;;17.65;62.74;97745.75;5493464;26;43134;-80
2024/04/09 02:44:42;;;;;;;8.40;3.00;;;;;;;17.61;62.78;97739.03;5492556;26;39900;-77
2024/04/09 02:47:08;;;;;;;7.30;2.17;;;;;;;17.54;62.98;97728.16;5491916;26;41643;-79
2024/04/09 02:49:43;;;;;;;14.27;3.23;;;;;;;17.46;63.98;97720.09;5491927;26;42955;-77
2024/04/09 02:52:11;;;;;;;7.87;2.93;;;;;;;17.46;63.82;97721.94;5492253;26;43141;-78
2024/04/09 02:54:40;;;;;;;7.43;3.20;;;;;;;17.41;63.49;97724.31;5494059;26;40154;-79
2024/04/09 02:57:07;;;;;;;5.57;2.67;;;;;;;17.42;63.37;97728.66;5492121;26;41541;-79
2024/04/09 02:59:39;;;;;;;8.57;2.50;;;;;;;17.45;63.58;97731.81;5493112;26;43080;-77
2024/04/09 03:02:05;;;;;;;9.03;2.57;;;;;;;17.47;63.54;97743.19;5504012;26;43361;-76
2024/04/09 03:04:35;;;;;;;6.13;2.60;;;;;;;17.45;63.27;97737.16;5499982;26;41555;-76
2024/04/09 03:07:05;;;;;;;8.27;2.27;;;;;;;17.41;63.05;97733.16;5461380;26;40420;-80
2024/04/09 03:09:34;;;;;;;8.60;2.93;;;;;;;17.43;63.06;97731.13;5493995;26;43877;-77
2024/04/09 03:12:01;;;;;;;5.30;2.53;;;;;;;17.56;63.86;97736.84;5491730;26;43297;-79
2024/04/09 03:14:31;;;;;;;7.43;2.30;;;;;;;17.47;63.62;97721.78;5491785;26;39418;-80
2024/04/09 03:16:57;;;;;;;5.13;2.63;;;;;;;17.52;63.01;97723.97;5461105;26;41482;-78
2024/04/09 03:19:26;;;;;;;5.33;2.23;;;;;;;17.43;62.70;97715.06;5461393;26;42314;-77
2024/04/09 03:21:53;;;;;;;3.50;2.10;;;;;;;17.52;62.67;97734.69;5460902;26;42271;-78
2024/04/09 03:24:24;;;;;;;5.50;2.57;;;;;;;17.62;62.96;97745.22;5491665;26;40107;-78
2024/04/09 03:26:51;;;;;;;5.43;2.17;;;;;;;17.65;62.66;97750.28;5492780;26;42936;-80
2024/04/09 03:29:20;;;;;;;7.77;2.80;;;;;;;17.66;62.83;97763.50;5491338;26;42667;-79
2024/04/09 03:31:47;;;;;;;5.17;2.30;;;;;;;17.67;62.55;97758.97;5492938;26;42429;-78
2024/04/09 03:34:16;;;;;;;11.10;2.63;;;;;;;17.67;62.61;97761.66;5491359;26;38853;-79
2024/04/09 03:36:43;;;;;;;4.07;2.10;;;;;;;17.66;62.78;97751.94;5493195;26;42377;-78
2024/04/09 03:39:12;;;;;;;9.87;2.43;;;;;;;17.58;63.29;97737.50;5492493;26;42811;-76
2024/04/09 03:41:44;;;;;;;7.13;2.57;;;;;;;17.61;63.99;97749.72;5491178;26;43413;-77
2024/04/09 03:44:13;;;;;;;11.50;3.27;;;;;;;17.58;64.20;97750.88;5493021;26;41346;-78
2024/04/09 03:46:40;;;;;;;9.47;3.00;;;;;;;17.54;64.23;97754.94;5491120;26;42822;-77
2024/04/09 03:49:10;;;;;;;5.83;2.73;;;;;;;17.52;64.19;97748.91;5490436;26;43791;-77
2024/04/09 03:51:36;;;;;;;9.73;2.40;;;;;;;17.46;63.71;97749.53;5490865;26;42296;-77
2024/04/09 03:54:07;;;;;;;4.53;2.17;;;;;;;17.34;64.17;97750.88;5492804;26;40193;-78
2024/04/09 03:56:34;;;;;;;8.37;2.50;;;;;;;17.31;63.90;97759.22;5495566;26;42662;-77
2024/04/09 03:59:06;;;;;;;7.73;2.67;;;;;;;17.33;64.06;97775.13;5495423;26;42636;-77
2024/04/09 04:01:33;;;;;;;5.07;2.47;;;;;;;17.17;64.62;97746.50;5495391;26;42076;-80
2024/04/09 04:04:02;;;;;;;7.00;2.73;;;;;;;17.08;64.65;97742.13;5495041;26;40125;-80
2024/04/09 04:06:28;;;;;;;6.50;1.90;;;;;;;17.06;64.69;97755.66;5495377;26;41520;-77
2024/04/09 04:08:58;;;;;;;6.73;2.27;;;;;;;17.04;64.77;97765.72;5493230;26;43081;-79
2024/04/09 04:11:24;;;;;;;7.93;2.30;;;;;;;16.99;64.75;97775.22;5462919;26;42074;-81
2024/04/09 04:13:53;;;;;;;4.27;1.97;;;;;;;16.96;64.81;97775.53;5494879;26;40157;-78
2024/04/09 04:16:22;;;;;;;8.30;2.10;;;;;;;16.79;65.08;97754.09;5494958;26;41896;-80
2024/04/09 04:18:52;;;;;;;8.70;2.93;;;;;;;16.89;65.00;97780.69;5493190;26;42920;-78
2024/04/09 04:21:20;;;;;;;3.93;1.83;;;;;;;16.84;64.88;97783.84;5495327;26;43221;-79
2024/04/09 04:23:51;;;;;;;4.53;2.43;;;;;;;16.76;64.77;97781.16;5493512;26;40670;-79
2024/04/09 04:26:19;;;;;;;7.33;2.93;;;;;;;16.76;65.09;97770.44;5495144;26;41611;-80
2024/04/09 04:28:50;;;;;;;7.70;2.53;;;;;;;16.73;65.32;97781.47;5494745;26;42900;-79
2024/04/09 04:31:17;;;;;;;6.40;2.43;;;;;;;16.71;65.71;97780.78;5495188;26;42232;-79
2024/04/09 04:33:50;;;;;;;6.50;2.50;;;;;;;16.69;65.70;97789.97;5494933;26;40031;-79
2024/04/09 04:36:17;;;;;;;6.40;2.70;;;;;;;16.63;66.87;97764.72;5493465;26;42838;-77
2024/04/09 04:38:48;;;;;;;6.37;2.40;;;;;;;16.63;66.71;97772.72;5493070;26;42822;-77
2024/04/09 04:41:15;;;;;;;10.47;2.87;;;;;;;16.62;66.97;97779.06;5495218;26;41781;-77
2024/04/09 04:43:44;;;;;;;6.90;2.40;;;;;;;16.55;67.01;97763.81;5462684;26;41217;-78
2024/04/09 04:46:14;;;;;;;6.90;2.40;;;;;;;16.57;66.64;97773.31;5493187;26;41659;-79
2024/04/09 04:48:40;;;;;;;4.17;2.30;;;;;;;16.54;66.72;97765.66;5494743;26;44096;-77
2024/04/09 04:51:12;;;;;;;5.93;2.40;;;;;;;16.49;68.08;97758.09;5462529;26;41005;-80
2024/04/09 04:53:39;;;;;;;8.63;2.60;;;;;;;16.37;67.93;97753.19;5494810;26;39859;-78
2024/04/09 04:56:08;;;;;;;9.20;3.10;;;;;;;16.52;68.43;97795.22;5494526;26;41375;-78
2024/04/09 04:58:35;;;;;;;7.43;3.13;;;;;;;16.48;68.03;97803.69;5492731;26;42946;-79
2024/04/09 05:01:04;;;;;;;7.27;2.40;;;;;;;16.40;68.29;97796.47;5494482;26;42355;-80
2024/04/09 05:03:31;;;;;;;7.17;2.83;;;;;;;16.47;68.31;97812.69;5494349;26;41273;-80
2024/04/09 05:06:07;;;;;;;6.37;2.37;;;;;;;16.38;68.33;97813.66;5493414;26;42992;-79
2024/04/09 05:08:36;;;;;;;8.43;2.80;;;;;;;16.46;68.95;97832.41;5494255;26;44223;-77
2024/04/09 05:11:12;;;;;;;6.20;3.03;;;;;;;16.50;69.22;97839.13;5494829;26;42015;-79
2024/04/09 05:13:38;;;;;;;4.80;2.33;;;;;;;16.50;69.07;97831.09;5493246;26;40191;-79
2024/04/09 05:16:08;;;;;;;9.10;3.60;;;;;;;16.45;69.20;97828.03;5494611;26;41665;-76
2024/04/09 05:18:34;;;;;;;8.87;3.53;;;;;;;16.52;69.86;97829.94;5494925;26;43983;-79
2024/04/09 05:21:04;;;;;;;10.50;3.40;;;;;;;16.59;69.70;97838.16;5494863;26;42240;-79
2024/04/09 05:23:30;;;;;;;13.37;3.03;;;;;;;16.58;69.50;97847.16;5494761;26;41017;-76
2024/04/09 05:26:02;;;;;;;4.40;2.80;;;;;;;16.60;69.48;97834.50;5462520;26;43302;-79
2024/04/09 05:28:29;;;;;;;6.90;3.10;;;;;;;16.75;69.90;97843.63;5494355;26;42851;-78
2024/04/09 05:30:58;;;;;;;6.63;3.03;;;;;;;16.78;70.04;97848.69;5494650;26;42364;-76
2024/04/09 05:33:24;;;;;;;5.77;2.90;;;;;;;16.81;69.31;97853.69;5462045;26;38652;-78
2024/04/09 05:35:54;;;;;;;6.80;3.03;;;;;;;16.98;69.30;97880.50;5462019;26;40462;-78
2024/04/09 05:38:20;;;;;;;7.73;3.23;;;;;;;17.03;69.11;97875.53;5492520;26;42749;-79
2024/04/09 05:40:57;;;;;;;6.43;2.53;;;;;;;17.23;68.87;97880.47;5494306;26;42047;-78
2024/04/09 05:43:26;;;;;;;5.40;2.53;;;;;;;17.12;68.86;97850.50;5493883;26;40184;-77
2024/04/09 05:45:55;;;;;;;9.73;2.93;;;;;;;17.35;68.57;97878.31;5493772;26;42693;-81
2024/04/09 05:48:22;;;;;;;11.13;3.20;;;;;;;17.45;68.84;97884.38;5488410;26;43053;-86
2024/04/09 05:50:51;;;;;;;9.33;3.50;;;;;;;17.60;68.85;97904.19;5492427;26;41966;-75
2024/04/09 05:53:18;;;;;;;6.57;3.10;;;;;;;17.60;69.28;97893.47;5493948;26;39962;-80
2024/04/09 05:55:56;;;;;;;8.83;3.57;;;;;;;17.73;68.96;97902.91;5492405;26;40113;-80
2024/04/09 05:58:22;;;;;;;16.40;4.47;;;;;;;17.76;68.84;97913.28;5492124;26;43876;-81
2024/04/09 06:00:56;;;;;;;8.70;4.37;;;;;;;17.82;68.74;97901.91;5456281;26;41744;-86
2024/04/09 06:03:22;;;;;;;9.37;3.90;;;;;;;17.94;68.83;97911.28;5457907;26;40304;-84
2024/04/09 06:05:52;;;;;;;9.23;3.60;;;;;;;18.01;68.34;97917.69;5492210;26;42598;-74
2024/04/09 06:08:18;;;;;;;11.83;4.53;;;;;;;18.00;67.72;97910.66;5500399;26;43034;-78
2024/04/09 06:10:47;;;;;;;9.20;4.03;;;;;;;18.22;67.80;97942.16;5499556;26;42048;-78
2024/04/09 06:13:14;;;;;;;10.77;3.40;;;;;;;18.35;67.66;97954.22;5499270;26;41447;-74
2024/04/09 06:15:43;;;;;;;8.10;4.10;;;;;;;18.41;67.14;97940.16;5504172;26;42321;-74
2024/04/09 06:18:12;;;;;;;9.03;3.27;;;;;;;18.53;66.62;97936.16;5495977;26;42921;-78
2024/04/09 06:20:41;;;;;;;9.47;3.20;;;;;;;18.72;66.75;97948.38;5467587;26;42193;-82
2024/04/09 06:23:08;;;;;;;14.87;4.73;;;;;;;18.85;66.23;97957.59;5456779;26;38854;-78
2024/04/09 06:25:38;;;;;;;14.40;3.93;;;;;;;18.93;66.11;97957.56;5476551;26;42754;-79
2024/04/09 06:28:05;;;;;;;6.13;3.30;;;;;;;18.80;65.49;97927.75;5493884;26;43265;-77
2024/04/09 06:30:34;;;;;;;10.27;3.77;;;;;;;19.23;64.93;97960.53;5491943;26;42301;-79
2024/04/09 06:33:01;;;;;;;6.53;2.87;;;;;;;19.36;64.65;97960.84;5492484;26;38858;-80
2024/04/09 06:35:33;;;;;;;7.80;3.67;;;;;;;19.55;64.17;97976.56;5494071;26;41866;-81
2024/04/09 06:37:59;;;;;;;16.87;4.50;;;;;;;19.67;63.44;97983.22;5494023;26;44072;-80
2024/04/09 06:40:30;;;;;;;12.97;4.73;;;;;;;19.89;63.20;97978.94;5491781;26;42198;-77
2024/04/09 06:42:57;;;;;;;9.87;4.30;;;;;;;20.12;62.49;97981.66;5499703;26;40116;-85
2024/04/09 06:45:26;;;;;;;16.00;4.83;;;;;;;20.35;60.92;98004.06;5500060;26;41696;-74
2024/04/09 06:47:53;;;;;;;15.03;4.53;;;;;;;20.50;60.72;97997.91;5500020;26;44125;-80
2024/04/09 06:50:22;;;;;;;7.37;2.93;;;;;;;20.70;59.32;97996.41;5491917;26;43888;-79
2024/04/09 06:52:51;;;;;;;12.10;3.80;;;;;;;21.04;58.40;98014.78;5493757;26;41242;-80
2024/04/09 06:55:20;;;;;;;8.43;3.47;;;;;;;21.15;57.92;97993.63;5493105;26;41729;-75
2024/04/09 06:57:46;;;;;;;9.63;3.20;;;;;;;21.57;57.37;98015.63;5491486;26;42972;-79
2024/04/09 07:00:17;;;;;;;10.40;3.70;;;;;;;21.78;56.53;98016.53;5461724;26;41279;-78
2024/04/09 07:02:44;;;;;;;10.17;3.50;;;;;;;21.90;56.12;98021.44;5491243;26;38425;-82
2024/04/09 07:05:13;;;;;;;10.23;3.63;;;;;;;21.86;55.90;98021.84;5491738;26;40206;-80
2024/04/09 07:07:39;;;;;;;9.17;3.00;;;;;;;21.91;54.49;98028.50;5492392;26;42773;-77
2024/04/09 07:10:13;;;;;;;12.13;3.10;;;;;;;22.01;54.38;98034.47;5491321;26;41430;-76
2024/04/09 07:12:40;;;;;;;9.00;3.77;;;;;;;22.10;54.66;98038.75;5459714;26;40202;-78
2024/04/09 07:15:10;;;;;;;10.07;3.67;;;;;;;22.20;54.23;98055.47;5490930;26;40903;-77
2024/04/09 07:17:37;;;;;;;9.53;3.50;;;;;;;22.25;53.66;98039.56;5490595;26;42690;-77
2024/04/09 07:20:08;;;;;;;8.77;3.43;;;;;;;22.42;52.57;98048.25;5492848;26;42052;-78
2024/04/09 07:22:34;;;;;;;10.50;3.73;;;;;;;22.64;52.37;98062.59;5468321;26;39894;-78
2024/04/09 07:25:04;;;;;;;14.27;3.70;;;;;;;22.84;52.10;98052.88;5454356;26;41897;-79
2024/04/09 07:27:34;;;;;;;10.27;2.93;;;;;;;23.26;51.93;98079.84;5474549;26;42997;-78
2024/04/09 07:30:03;;;;;;;7.93;2.70;;;;;;;23.53;50.69;98091.75;5489567;26;42129;-78
2024/04/09 07:32:31;;;;;;;10.33;3.33;;;;;;;23.82;49.53;98101.53;5473976;26;40120;-77
2024/04/09 07:35:00;;;;;;;11.97;3.33;;;;;;;23.86;49.10;98070.31;5456083;26;43065;-79
2024/04/09 07:37:26;;;;;;;7.33;3.03;;;;;;;24.26;48.72;98103.03;5467667;26;42829;-77
2024/04/09 07:39:56;;;;;;;9.60;2.90;;;;;;;24.55;48.17;98115.44;5491963;26;20259;-80
2024/04/09 07:42:23;;;;;;;10.23;3.70;;;;;;;24.87;46.22;98127.41;5480949;26;40009;-75
2024/04/09 07:44:55;;;;;;;7.90;2.83;;;;;;;25.18;45.61;98114.19;5453369;26;40638;-77
2024/04/09 07:47:22;;;;;;;11.57;3.10;;;;;;;25.45;43.66;98122.31;5455579;26;42773;-81
2024/04/09 07:49:53;;;;;;;9.80;2.77;;;;;;;25.64;43.45;98116.09;5455879;26;42237;-83
2024/04/09 07:52:19;;;;;;;8.73;2.27;;;;;;;25.95;41.38;98132.56;5456099;26;41438;-82
2024/04/09 07:54:48;;;;;;;9.50;2.80;;;;;;;26.28;41.04;98158.81;5454545;26;41612;-77
2024/04/09 07:57:15;;;;;;;6.87;2.30;;;;;;;26.37;41.35;98141.22;5457269;26;42854;-82
2024/04/09 07:59:44;;;;;;;9.10;2.57;;;;;;;26.65;39.31;98173.50;5491017;26;40852;-80
2024/04/09 08:02:13;;;;;;;8.40;1.97;;;;;;;26.73;39.20;98167.84;5490306;26;40193;-80
2024/04/09 08:04:42;;;;;;;7.10;2.57;;;;;;;26.90;39.03;98174.44;5490434;26;40587;-86
2024/04/09 08:07:09;;;;;;;5.87;2.10;;;;;;;27.31;39.13;98190.38;5492633;26;42588;-79
2024/04/09 08:09:38;;;;;;;5.87;1.87;;;;;;;27.60;38.05;98207.13;5489700;26;42978;-79
2024/04/09 08:12:05;;;;;;;6.90;2.30;;;;;;;27.77;36.65;98211.00;5490483;26;40399;-83
2024/04/09 08:14:34;;;;;;;7.73;1.97;;;;;;;28.12;37.16;98217.59;5490138;26;41669;-83
2024/04/09 08:17:01;;;;;;;7.87;2.20;;;;;;;28.48;35.35;98222.28;5492300;26;42998;-83
2024/04/09 08:19:33;;;;;;;4.70;1.98;;;;;;;28.99;35.56;98229.28;5465503;26;40664;-81
2024/04/09 08:22:00;;;;;;;5.00;2.20;;;;;;;29.38;34.52;98241.59;5455515;26;40005;-81
2024/04/09 08:24:29;;;;;;;7.75;2.00;;;;;;;29.97;33.23;98261.75;5476583;26;41670;-79
2024/04/09 08:26:55;;;;;;;6.30;1.40;;;;;;;30.43;32.02;98273.78;5491318;26;42642;-79
2024/04/09 08:29:26;;;;;;;3.47;1.20;;;;;;;30.39;32.01;98289.00;5472904;26;42075;-78
2024/04/09 08:31:52;;;;;;;6.10;1.50;;;;;;;30.24;32.39;98287.56;5422852;26;40910;-79
2024/04/09 08:34:22;;;;;;;4.65;1.38;;;;;;;30.09;32.69;98272.69;5469537;26;41625;-81
2024/04/09 08:36:51;;;;;;;3.80;1.48;;;;;;;30.41;33.30;98286.88;5491041;26;42653;-80
2024/04/09 08:39:20;;;;;;;3.53;1.48;;;;;;;30.54;32.57;98297.59;5477148;26;42238;-80
2024/04/09 08:41:49;;;;;;;4.57;1.50;;;;;;;30.68;32.29;98297.09;5456305;26;40144;-82
2024/04/09 08:44:19;;;;;;;2.72;1.30;;;;;;;30.80;31.33;98302.56;5464578;26;41670;-81
2024/04/09 08:46:51;;;;;;;7.50;1.33;;;;;;;30.90;31.38;98294.59;5493857;26;44387;-88
2024/04/09 08:49:21;;;;;;;5.28;1.38;;;;;;;31.14;31.38;98324.69;5493227;26;42996;-85
2024/04/09 08:51:47;;;;;;;3.05;1.30;;;;;;;31.39;30.80;98323.31;5463000;26;39016;-84
2024/04/09 08:54:19;;;;;;;2.92;0.98;;;;;;;31.53;31.56;98314.81;5462941;26;40655;-84
2024/04/09 08:56:46;;;;;;;3.22;1.10;;;;;;;32.16;31.25;98308.31;5492535;26;42680;-80
2024/04/09 08:59:16;;;;;;;2.15;1.10;;;;;;;32.60;30.00;98350.50;5493770;26;43027;-79
2024/04/09 09:01:42;;;;;;;2.45;1.00;;;;;;;31.97;30.74;98362.53;5493532;26;40259;-87
2024/04/09 09:04:11;;;;;;;1.30;1.08;;;;;;;30.70;31.94;98346.06;5493917;26;43071;-86
2024/04/09 09:06:45;;;;;;;3.40;1.17;;;;;;;29.41;33.31;98342.09;5492803;26;42081;-86
2024/04/09 09:09:27;;;;;;;3.93;1.17;;;;;;;28.55;34.25;98336.66;5494333;26;42400;-84
2024/04/09 09:12:00;;;;;;;4.60;1.30;;;;;;;28.52;35.44;98348.00;5426585;26;38837;-80
2024/04/09 09:14:31;;;;;;;2.17;1.10;;;;;;;28.35;36.30;98344.16;5457826;26;41509;-81
2024/04/09 09:17:01;;;;;;;3.33;0.90;;;;;;;28.18;36.03;98352.88;5492292;26;42887;-80
2024/04/09 09:19:32;;;;;;;2.57;1.07;;;;;;;27.63;37.03;98331.84;5494081;26;42033;-83
2024/04/09 09:21:58;;;;;;;4.03;1.50;;;;;;;27.10;37.71;98321.16;5460727;26;39987;-83
2024/04/09 09:24:31;;;;;;;4.00;1.30;;;;;;;26.68;38.45;98334.19;5456061;26;42071;-82
2024/04/09 09:27:00;;;;;;;5.30;1.20;;;;;;;26.11;39.25;98321.22;5464203;26;42963;-80
2024/04/09 09:29:30;;;;;;;2.90;1.07;;;;;;;26.12;40.06;98318.31;5472744;26;42432;-90
2024/04/09 09:31:56;;;;;;;2.97;1.00;;;;;;;26.61;40.29;98322.50;5462760;26;39647;-81
2024/04/09 09:34:38;;;;;;;4.47;0.93;;;;;;;26.97;39.52;98342.94;5461079;26;41479;-80
2024/04/09 09:37:07;;;;;;;2.20;1.10;;;;;;;27.20;39.47;98337.03;5485210;26;42812;-81
2024/04/09 09:39:41;;;;;;;3.13;0.87;;;;;;;26.93;39.27;98328.13;5495856;26;42131;-81
2024/04/09 09:42:11;;;;;;;1.70;0.63;;;;;;;26.53;39.18;98340.91;5494563;26;41067;-82
2024/04/09 09:44:41;;;;;;;3.50;0.67;;;;;;;26.25;39.89;98349.22;5494538;26;41852;-88
2024/04/09 09:47:08;;;;;;;1.93;0.90;;;;;;;25.97;40.84;98374.63;5463666;26;42301;-79
2024/04/09 09:49:38;;;;;;;1.70;0.87;;;;;;;25.42;41.30;98381.97;5492807;26;43161;-79
2024/04/09 09:52:04;;;;;;;4.10;1.10;;;;;;;24.56;42.29;98341.81;5493886;26;41809;-80
2024/04/09 09:54:36;;;;;;;4.13;0.87;;;;;;;24.52;42.97;98379.28;5495001;26;41468;-77
2024/04/09 09:57:10;;;;;;;3.70;0.60;;;;;;;24.08;43.60;98392.19;5493077;26;42939;-82
2024/04/09 09:59:45;;;;;;;4.30;0.80;;;;;;;23.64;44.17;98376.91;5493464;26;40893;-84
2024/04/09 10:02:16;;;;;;;2.93;0.70;;;;;;;23.29;44.63;98398.28;5490963;26;40089;-78
2024/04/09 10:04:47;;;;;;;2.10;0.77;;;;;;;23.05;45.03;98401.28;5491810;26;41467;-78
2024/04/09 10:07:16;;;;;;;1.23;0.60;;;;;;;22.57;45.85;98379.16;5488787;26;42306;-79
2024/04/09 10:09:46;;;;;;;1.43;0.80;;;;;;;22.33;46.83;98417.13;5487835;26;43623;-80
2024/04/09 10:12:23;;;;;;;3.30;0.50;;;;;;;22.17;46.76;98438.84;5491989;26;39908;-79
2024/04/09 10:14:59;;;;;;;2.07;0.73;;;;;;;22.08;46.72;98438.06;5490705;26;41594;-76
2024/04/09 10:17:30;;;;;;;1.13;0.43;;;;;;;21.86;47.06;98446.94;5461373;26;41951;-82
2024/04/09 10:19:59;;;;;;;0.50;0.40;;;;;;;21.37;47.98;98443.63;5491926;26;40815;-79
2024/04/09 10:22:27;;;;;;;0.63;0.47;;;;;;;21.04;48.96;98451.75;5494008;26;40448;-78
2024/04/09 10:24:56;;;;;;;0.57;0.20;;;;;;;20.68;49.63;98440.56;5489173;26;41260;-78
2024/04/09 10:27:26;;;;;;;1.17;0.33;;;;;;;20.69;48.89;98457.53;5492821;26;42802;-80
2024/04/09 10:29:56;;;;;;;1.17;0.40;;;;;;;20.62;48.72;98433.19;5491774;26;42186;-78
2024/04/09 10:32:24;;;;;;;2.37;0.30;;;;;;;20.97;48.14;98472.31;5492014;26;40257;-79
2024/04/09 10:34:55;;;;;;;0.40;0.30;;;;;;;21.23;47.41;98460.50;5493190;26;41554;-79
2024/04/09 10:37:22;;;;;;;0.40;0.40;;;;;;;21.77;46.75;98500.03;5493620;26;42905;-79
2024/04/09 10:39:51;;;;;;;0.40;0.33;;;;;;;21.95;46.52;98523.22;5493774;26;41955;-79
2024/04/09 10:42:20;;;;;;;0.20;0.20;;;;;;;21.76;45.70;98511.81;5491632;26;38909;-77
2024/04/09 10:44:51;;;;;;;0.30;0.30;;;;;;;21.92;45.28;98531.66;5489048;26;42977;-79
2024/04/09 10:47:18;;;;;;;0.20;0.20;;;;;;;21.76;45.31;98519.91;5492409;26;42820;-81
2024/04/09 10:49:48;;;;;;;0.97;0.30;;;;;;;21.83;44.77;98534.41;5493356;26;42321;-78
2024/04/09 10:52:15;;;;;;;1.40;0.50;;;;;;;21.91;44.62;98529.97;5492858;26;39488;-78
2024/04/09 10:54:51;;;;;;;1.17;0.30;;;;;;;22.01;44.51;98530.63;5492998;26;43080;-79
2024/04/09 10:57:17;;;;;;;0.50;0.30;;;;;;;21.88;44.14;98538.44;5493308;26;42830;-79
2024/04/09 10:59:48;;;;;;;1.27;0.60;;;;;;;21.88;43.36;98556.25;5491034;26;41974;-80
2024/04/09 11:02:17;;;;;;;0.73;0.23;;;;;;;21.67;42.55;98555.16;5463944;26;40660;-82
2024/04/09 11:04:46;;;;;;;0.97;0.57;;;;;;;21.66;43.26;98559.72;5453695;26;41741;-85
2024/04/09 11:07:16;;;;;;;0.73;0.30;;;;;;;21.64;41.92;98563.59;5445228;26;41581;-84
2024/04/09 11:09:45;;;;;;;3.70;0.33;;;;;;;21.66;41.93;98580.44;5461497;26;40902;-83
2024/04/09 11:12:12;;;;;;;0.43;0.40;;;;;;;21.70;41.05;98601.50;5489395;26;41244;-79
2024/04/09 11:14:41;;;;;;;0.63;0.40;;;;;;;21.69;41.33;98602.50;5493141;26;42755;-81
2024/04/09 11:17:18;;;;;;;1.03;0.40;;;;;;;21.71;41.12;98635.53;5493045;26;42934;-84
2024/04/09 11:19:47;;;;;;;0.40;0.40;;;;;;;21.48;40.89;98616.53;5492860;26;43427;-80
2024/04/09 11:22:14;;;;;;;1.07;0.50;;;;;;;21.27;40.24;98599.19;5492433;26;39855;-83
2024/04/09 11:24:44;;;;;;;0.77;0.50;;;;;;;21.37;40.39;98643.81;5491650;26;42184;-82
2024/04/09 11:27:11;;;;;;;1.17;0.40;;;;;;;21.00;39.60;98638.91;5492352;26;44025;-82
2024/04/09 11:29:49;;;;;;;1.43;0.50;;;;;;;20.98;40.32;98662.47;5491189;26;42269;-78
2024/04/09 11:32:18;;;;;;;1.70;0.50;;;;;;;20.87;39.84;98665.47;5482176;26;40148;-79
2024/04/09 11:34:47;;;;;;;1.30;0.50;;;;;;;20.77;40.07;98673.69;5456058;26;41694;-82
2024/04/09 11:37:14;;;;;;;2.07;0.33;;;;;;;20.62;40.07;98672.66;5460934;26;43987;-83
2024/04/09 11:39:48;;;;;;;1.60;0.60;;;;;;;20.66;40.05;98681.22;5490097;26;42427;-77